X  Schließen METAR Luftfahrt Wetterdaten     EDVE Braunschweig-Wolfsburg Airport
Temperatur
6°C Temperatur
1°C Taupunkt
71% Feuchtigkeit



Wind
23 KM/S
14 MPS
6 M/S
12 KTS



250°
WSW
Aktuelle Wetterlage

Meistens bewölkt Meistens bewölkt
Luftdruck 991.92 (hPa) - 29.29 (inHg)
Sichtweite 6.2 (Meile) - 10 (Km)
Flughafen
Flughafen Code EDVE

Position : Braunschweig-Wolfsburg Airport
Entfernung: 35 (Km)

Metar:
EDVE 221250Z 25012KT 9999 BKN023 BKN031 06/01 Q0992

Zeit: 22-01-2021 13:50 CET